sensor_id;sensor_type;location;lat;lon;timestamp;pressure;altitude;pressure_sealevel;temperature;humidity
4199;BME280;2113;50.946;14.610;2023-02-28T07:29:56;98287.13;;;14.62;28.33
4199;BME280;2113;50.946;14.610;2023-02-28T07:32:29;98273.63;;;18.88;23.29
4199;BME280;2113;50.946;14.610;2023-02-28T07:34:57;98279.28;;;19.65;20.61
4199;BME280;2113;50.946;14.610;2023-02-28T07:37:25;98269.25;;;23.68;15.96
4199;BME280;2113;50.946;14.610;2023-02-28T07:39:53;98262.19;;;24.89;14.68
4199;BME280;2113;50.946;14.610;2023-02-28T07:42:21;98264.00;;;26.35;14.32
4199;BME280;2113;50.946;14.610;2023-02-28T07:44:50;98280.13;;;26.22;13.32
4199;BME280;2113;50.946;14.610;2023-02-28T07:47:21;98287.22;;;21.91;16.03
4199;BME280;2113;50.946;14.610;2023-02-28T07:49:51;98284.31;;;26.80;13.65
4199;BME280;2113;50.946;14.610;2023-02-28T07:52:20;98282.09;;;27.48;12.55
4199;BME280;2113;50.946;14.610;2023-02-28T07:54:48;98284.88;;;27.46;12.28
4199;BME280;2113;50.946;14.610;2023-02-28T07:57:17;98284.22;;;28.55;11.62
4199;BME280;2113;50.946;14.610;2023-02-28T07:59:45;98284.31;;;30.24;10.06
4199;BME280;2113;50.946;14.610;2023-02-28T08:02:14;98287.75;;;29.51;10.53
4199;BME280;2113;50.946;14.610;2023-02-28T08:04:45;98280.34;;;29.35;10.54
4199;BME280;2113;50.946;14.610;2023-02-28T08:07:15;98286.19;;;26.24;11.33
4199;BME280;2113;50.946;14.610;2023-02-28T08:09:44;98297.03;;;22.98;14.64
4199;BME280;2113;50.946;14.610;2023-02-28T08:12:12;98294.94;;;23.93;13.62
4199;BME280;2113;50.946;14.610;2023-02-28T08:14:41;98283.97;;;25.16;13.37
4199;BME280;2113;50.946;14.610;2023-02-28T08:17:09;98290.72;;;24.87;13.00
4199;BME280;2113;50.946;14.610;2023-02-28T08:19:38;98294.00;;;22.09;14.52
4199;BME280;2113;50.946;14.610;2023-02-28T08:22:08;98297.66;;;19.66;17.10
4199;BME280;2113;50.946;14.610;2023-02-28T08:24:36;98296.16;;;19.11;17.57
4199;BME280;2113;50.946;14.610;2023-02-28T08:27:05;98311.19;;;13.61;22.34
4199;BME280;2113;50.946;14.610;2023-02-28T08:29:33;98309.59;;;13.55;22.41
4199;BME280;2113;50.946;14.610;2023-02-28T08:32:02;98310.22;;;11.93;24.11
4199;BME280;2113;50.946;14.610;2023-02-28T08:34:30;98306.47;;;16.27;20.86
4199;BME280;2113;50.946;14.610;2023-02-28T08:36:58;98315.28;;;16.02;19.07
4199;BME280;2113;50.946;14.610;2023-02-28T08:39:28;98297.66;;;14.86;21.01
4199;BME280;2113;50.946;14.610;2023-02-28T08:41:56;98304.88;;;17.87;17.77
4199;BME280;2113;50.946;14.610;2023-02-28T08:44:33;98328.00;;;11.29;24.47
4199;BME280;2113;50.946;14.610;2023-02-28T08:47:02;98311.28;;;12.59;23.66
4199;BME280;2113;50.946;14.610;2023-02-28T08:49:31;98310.84;;;15.33;21.28
4199;BME280;2113;50.946;14.610;2023-02-28T08:51:59;98290.66;;;12.83;22.24
4199;BME280;2113;50.946;14.610;2023-02-28T08:54:29;98325.22;;;10.42;25.42
4199;BME280;2113;50.946;14.610;2023-02-28T08:56:58;98320.41;;;12.40;24.42
4199;BME280;2113;50.946;14.610;2023-02-28T08:59:27;98316.00;;;13.75;22.62
4199;BME280;2113;50.946;14.610;2023-02-28T09:01:55;98326.81;;;11.87;24.50
4199;BME280;2113;50.946;14.610;2023-02-28T09:04:23;98325.66;;;11.16;24.86
4199;BME280;2113;50.946;14.610;2023-02-28T09:06:51;98323.06;;;10.68;25.80
4199;BME280;2113;50.946;14.610;2023-02-28T09:09:20;98321.28;;;11.62;25.46
4199;BME280;2113;50.946;14.610;2023-02-28T09:11:49;98328.44;;;8.36;29.86
4199;BME280;2113;50.946;14.610;2023-02-28T09:14:17;98327.47;;;6.18;32.05
4199;BME280;2113;50.946;14.610;2023-02-28T09:16:46;98322.59;;;9.11;28.43
4199;BME280;2113;50.946;14.610;2023-02-28T09:19:16;98321.59;;;9.91;28.74
4199;BME280;2113;50.946;14.610;2023-02-28T09:21:48;98334.06;;;9.66;27.17
4199;BME280;2113;50.946;14.610;2023-02-28T09:24:17;98327.25;;;7.44;30.30
4199;BME280;2113;50.946;14.610;2023-02-28T09:26:46;98335.88;;;10.77;26.97
4199;BME280;2113;50.946;14.610;2023-02-28T09:29:32;98329.22;;;10.63;27.08
4199;BME280;2113;50.946;14.610;2023-02-28T09:32:01;98320.25;;;12.11;24.79
4199;BME280;2113;50.946;14.610;2023-02-28T09:34:32;98317.28;;;13.60;23.41
4199;BME280;2113;50.946;14.610;2023-02-28T09:37:01;98312.72;;;15.04;21.37
4199;BME280;2113;50.946;14.610;2023-02-28T09:40:28;57013.78;;;-145.60;100.00
4199;BME280;2113;50.946;14.610;2023-02-28T09:43:02;98319.91;;;9.90;25.74
4199;BME280;2113;50.946;14.610;2023-02-28T09:45:37;98332.50;;;7.30;31.03
4199;BME280;2113;50.946;14.610;2023-02-28T09:48:14;98317.06;;;12.70;25.68
4199;BME280;2113;50.946;14.610;2023-02-28T09:50:46;98325.59;;;10.71;26.98
4199;BME280;2113;50.946;14.610;2023-02-28T09:53:19;98323.53;;;7.97;30.85
4199;BME280;2113;50.946;14.610;2023-02-28T09:55:51;98327.91;;;7.89;31.86
4199;BME280;2113;50.946;14.610;2023-02-28T09:58:28;98326.31;;;8.84;30.91
4199;BME280;2113;50.946;14.610;2023-02-28T10:01:03;98322.81;;;9.67;29.42
4199;BME280;2113;50.946;14.610;2023-02-28T10:03:39;98319.22;;;13.20;23.98
4199;BME280;2113;50.946;14.610;2023-02-28T10:06:12;98327.16;;;7.65;30.34
4199;BME280;2113;50.946;14.610;2023-02-28T10:08:47;98341.19;;;7.00;31.36
4199;BME280;2113;50.946;14.610;2023-02-28T10:11:19;98336.06;;;6.66;32.91
4199;BME280;2113;50.946;14.610;2023-02-28T10:13:54;98332.53;;;7.22;31.53
4199;BME280;2113;50.946;14.610;2023-02-28T10:16:32;98320.03;;;9.10;30.71
4199;BME280;2113;50.946;14.610;2023-02-28T10:19:04;98330.91;;;6.78;33.11
4199;BME280;2113;50.946;14.610;2023-02-28T10:21:38;98324.53;;;8.91;31.30
4199;BME280;2113;50.946;14.610;2023-02-28T10:24:29;98322.50;;;9.20;29.66
4199;BME280;2113;50.946;14.610;2023-02-28T10:27:00;98333.97;;;7.83;31.25
4199;BME280;2113;50.946;14.610;2023-02-28T10:29:32;98329.44;;;9.90;28.29
4199;BME280;2113;50.946;14.610;2023-02-28T10:32:03;98320.97;;;11.34;26.72
4199;BME280;2113;50.946;14.610;2023-02-28T10:34:32;98317.69;;;11.68;28.42
4199;BME280;2113;50.946;14.610;2023-02-28T10:37:00;98312.66;;;12.38;25.12
4199;BME280;2113;50.946;14.610;2023-02-28T10:39:38;98319.66;;;8.60;30.21
4199;BME280;2113;50.946;14.610;2023-02-28T10:42:21;98322.47;;;8.24;31.07
4199;BME280;2113;50.946;14.610;2023-02-28T10:45:06;98322.13;;;7.38;32.36
4199;BME280;2113;50.946;14.610;2023-02-28T10:47:48;98319.31;;;9.68;30.91
4199;BME280;2113;50.946;14.610;2023-02-28T10:50:28;98308.13;;;11.67;26.37
4199;BME280;2113;50.946;14.610;2023-02-28T10:53:10;98303.38;;;13.59;24.22
4199;BME280;2113;50.946;14.610;2023-02-28T10:55:43;98300.22;;;14.87;23.10
4199;BME280;2113;50.946;14.610;2023-02-28T10:58:21;98298.06;;;12.31;24.87
4199;BME280;2113;50.946;14.610;2023-02-28T11:00:51;98294.06;;;13.18;23.94
4199;BME280;2113;50.946;14.610;2023-02-28T11:03:29;98290.25;;;14.19;23.20
4199;BME280;2113;50.946;14.610;2023-02-28T11:06:04;98302.06;;;13.44;23.90
4199;BME280;2113;50.946;14.610;2023-02-28T11:08:33;98291.53;;;11.72;25.73
4199;BME280;2113;50.946;14.610;2023-02-28T11:11:04;98304.22;;;11.86;26.07
4199;BME280;2113;50.946;14.610;2023-02-28T11:13:35;98295.31;;;11.57;26.18
4199;BME280;2113;50.946;14.610;2023-02-28T11:16:07;98298.31;;;9.84;28.12
4199;BME280;2113;50.946;14.610;2023-02-28T11:18:42;98290.19;;;11.54;26.79
4199;BME280;2113;50.946;14.610;2023-02-28T11:21:18;98292.41;;;10.86;26.95
4199;BME280;2113;50.946;14.610;2023-02-28T11:23:47;98298.19;;;10.52;27.53
4199;BME280;2113;50.946;14.610;2023-02-28T11:26:36;98290.16;;;11.97;27.09
4199;BME280;2113;50.946;14.610;2023-02-28T11:29:19;98282.19;;;12.03;26.03
4199;BME280;2113;50.946;14.610;2023-02-28T11:32:03;98281.31;;;10.76;26.98
4199;BME280;2113;50.946;14.610;2023-02-28T11:34:37;98275.69;;;11.41;27.46
4199;BME280;2113;50.946;14.610;2023-02-28T11:37:11;98275.75;;;11.38;26.87
4199;BME280;2113;50.946;14.610;2023-02-28T11:39:40;98266.25;;;12.15;26.25
4199;BME280;2113;50.946;14.610;2023-02-28T11:42:29;98270.25;;;11.52;26.16
4199;BME280;2113;50.946;14.610;2023-02-28T11:45:12;98272.94;;;12.27;25.38
4199;BME280;2113;50.946;14.610;2023-02-28T11:47:48;98273.66;;;11.55;26.72
4199;BME280;2113;50.946;14.610;2023-02-28T11:50:49;98270.19;;;11.55;26.42
4199;BME280;2113;50.946;14.610;2023-02-28T11:53:27;98273.13;;;11.80;26.27
4199;BME280;2113;50.946;14.610;2023-02-28T11:56:06;98271.47;;;11.35;28.02
4199;BME280;2113;50.946;14.610;2023-02-28T11:58:45;98282.63;;;9.91;28.04
4199;BME280;2113;50.946;14.610;2023-02-28T12:01:28;98276.59;;;10.47;28.39
4199;BME280;2113;50.946;14.610;2023-02-28T12:04:13;98271.94;;;10.13;28.48
4199;BME280;2113;50.946;14.610;2023-02-28T12:06:51;98282.41;;;9.46;29.31
4199;BME280;2113;50.946;14.610;2023-02-28T12:09:39;98276.34;;;10.08;29.21
4199;BME280;2113;50.946;14.610;2023-02-28T12:12:21;98270.84;;;9.69;28.99
4199;BME280;2113;50.946;14.610;2023-02-28T12:15:05;98267.75;;;10.58;27.98
4199;BME280;2113;50.946;14.610;2023-02-28T12:17:49;98265.41;;;11.35;26.43
4199;BME280;2113;50.946;14.610;2023-02-28T12:20:25;98267.47;;;11.17;26.76
4199;BME280;2113;50.946;14.610;2023-02-28T12:23:06;98264.28;;;11.87;25.77
4199;BME280;2113;50.946;14.610;2023-02-28T12:25:47;98270.50;;;11.41;26.48
4199;BME280;2113;50.946;14.610;2023-02-28T12:28:23;98274.00;;;9.88;28.84
4199;BME280;2113;50.946;14.610;2023-02-28T12:30:56;98275.13;;;8.09;31.79
4199;BME280;2113;50.946;14.610;2023-02-28T12:33:31;98272.53;;;9.73;30.64
4199;BME280;2113;50.946;14.610;2023-02-28T12:36:04;98260.78;;;10.61;28.63
4199;BME280;2113;50.946;14.610;2023-02-28T12:38:38;98273.81;;;10.57;28.11
4199;BME280;2113;50.946;14.610;2023-02-28T12:41:13;98261.13;;;11.31;26.99
4199;BME280;2113;50.946;14.610;2023-02-28T12:43:44;98263.63;;;11.37;28.06
4199;BME280;2113;50.946;14.610;2023-02-28T12:46:18;98259.97;;;10.57;28.36
4199;BME280;2113;50.946;14.610;2023-02-28T12:48:50;98257.78;;;10.81;28.05
4199;BME280;2113;50.946;14.610;2023-02-28T12:51:20;98256.41;;;11.08;27.49
4199;BME280;2113;50.946;14.610;2023-02-28T12:53:57;98247.16;;;11.77;28.21
4199;BME280;2113;50.946;14.610;2023-02-28T12:56:34;98245.94;;;11.11;26.94
4199;BME280;2113;50.946;14.610;2023-02-28T12:59:12;98255.22;;;11.24;27.20
4199;BME280;2113;50.946;14.610;2023-02-28T13:02:08;98257.69;;;11.30;27.28
4199;BME280;2113;50.946;14.610;2023-02-28T13:05:07;98246.31;;;10.91;28.42
4199;BME280;2113;50.946;14.610;2023-02-28T13:08:02;98250.69;;;9.86;29.26
4199;BME280;2113;50.946;14.610;2023-02-28T13:10:44;98253.16;;;10.96;29.62
4199;BME280;2113;50.946;14.610;2023-02-28T13:13:18;98241.66;;;11.89;27.61
4199;BME280;2113;50.946;14.610;2023-02-28T13:15:58;98237.28;;;12.62;27.70
4199;BME280;2113;50.946;14.610;2023-02-28T13:18:31;98241.56;;;11.13;27.13
4199;BME280;2113;50.946;14.610;2023-02-28T13:21:00;98239.81;;;10.17;28.27
4199;BME280;2113;50.946;14.610;2023-02-28T13:24:00;98233.69;;;11.56;30.25
4199;BME280;2113;50.946;14.610;2023-02-28T13:29:34;98246.13;;;10.55;28.07
4199;BME280;2113;50.946;14.610;2023-02-28T13:32:28;98241.53;;;9.59;29.31
4199;BME280;2113;50.946;14.610;2023-02-28T13:38:24;98239.00;;;9.54;30.29
4199;BME280;2113;50.946;14.610;2023-02-28T13:44:06;98230.53;;;9.40;30.10
4199;BME280;2113;50.946;14.610;2023-02-28T13:49:43;98215.22;;;10.40;28.93
4199;BME280;2113;50.946;14.610;2023-02-28T13:52:15;98216.03;;;9.87;30.64
4199;BME280;2113;50.946;14.610;2023-02-28T13:57:51;98223.94;;;9.17;30.82
4199;BME280;2113;50.946;14.610;2023-02-28T14:00:34;98219.50;;;9.86;30.41
4199;BME280;2113;50.946;14.610;2023-02-28T14:03:28;98220.63;;;10.24;30.42
4199;BME280;2113;50.946;14.610;2023-02-28T14:06:15;98219.31;;;9.97;30.22
4199;BME280;2113;50.946;14.610;2023-02-28T14:08:53;98210.16;;;10.30;30.04
4199;BME280;2113;50.946;14.610;2023-02-28T14:11:28;98212.63;;;10.85;30.42
4199;BME280;2113;50.946;14.610;2023-02-28T14:13:59;98206.00;;;9.63;31.09
4199;BME280;2113;50.946;14.610;2023-02-28T14:16:36;98201.44;;;10.33;31.53
4199;BME280;2113;50.946;14.610;2023-02-28T14:19:13;98204.69;;;10.46;29.79
4199;BME280;2113;50.946;14.610;2023-02-28T14:22:02;98204.56;;;9.99;31.82
4199;BME280;2113;50.946;14.610;2023-02-28T14:27:45;98196.75;;;11.39;28.91
4199;BME280;2113;50.946;14.610;2023-02-28T14:30:37;98197.59;;;10.54;30.58
4199;BME280;2113;50.946;14.610;2023-02-28T14:33:24;98198.84;;;10.33;30.77
4199;BME280;2113;50.946;14.610;2023-02-28T14:36:07;98193.59;;;10.36;30.72
4199;BME280;2113;50.946;14.610;2023-02-28T14:38:41;98195.00;;;10.99;29.95
4199;BME280;2113;50.946;14.610;2023-02-28T14:41:20;98200.75;;;10.70;30.47
4199;BME280;2113;50.946;14.610;2023-02-28T14:43:51;98190.66;;;11.40;30.62
4199;BME280;2113;50.946;14.610;2023-02-28T14:46:20;98179.16;;;12.24;29.76
4199;BME280;2113;50.946;14.610;2023-02-28T14:48:49;98182.13;;;11.71;27.77
4199;BME280;2113;50.946;14.610;2023-02-28T14:51:22;98194.50;;;10.80;30.45
4199;BME280;2113;50.946;14.610;2023-02-28T14:53:55;98182.59;;;11.51;31.19
4199;BME280;2113;50.946;14.610;2023-02-28T14:56:27;98185.56;;;11.35;28.95
4199;BME280;2113;50.946;14.610;2023-02-28T14:58:58;98182.44;;;11.59;28.92
4199;BME280;2113;50.946;14.610;2023-02-28T15:01:26;98182.19;;;10.88;29.63
4199;BME280;2113;50.946;14.610;2023-02-28T15:04:00;98192.34;;;10.57;30.44
4199;BME280;2113;50.946;14.610;2023-02-28T15:06:32;98188.84;;;10.58;30.40
4199;BME280;2113;50.946;14.610;2023-02-28T15:09:08;98191.78;;;8.58;33.71
4199;BME280;2113;50.946;14.610;2023-02-28T15:11:39;98190.16;;;9.20;33.03
4199;BME280;2113;50.946;14.610;2023-02-28T15:14:15;98200.69;;;8.28;34.33
4199;BME280;2113;50.946;14.610;2023-02-28T15:16:48;98191.56;;;8.75;34.09
4199;BME280;2113;50.946;14.610;2023-02-28T15:19:22;98200.84;;;8.08;35.04
4199;BME280;2113;50.946;14.610;2023-02-28T15:21:56;98203.16;;;7.25;35.95
4199;BME280;2113;50.946;14.610;2023-02-28T15:24:33;98199.28;;;7.90;36.10
4199;BME280;2113;50.946;14.610;2023-02-28T15:27:07;98191.69;;;7.67;36.09
4199;BME280;2113;50.946;14.610;2023-02-28T15:29:44;98200.84;;;8.11;35.79
4199;BME280;2113;50.946;14.610;2023-02-28T15:32:24;98197.78;;;7.56;36.31
4199;BME280;2113;50.946;14.610;2023-02-28T15:34:55;98208.50;;;6.89;37.31
4199;BME280;2113;50.946;14.610;2023-02-28T15:37:33;98201.25;;;7.54;36.49
4199;BME280;2113;50.946;14.610;2023-02-28T15:40:13;98199.34;;;7.79;35.95
4199;BME280;2113;50.946;14.610;2023-02-28T15:42:42;98205.06;;;6.83;37.50
4199;BME280;2113;50.946;14.610;2023-02-28T15:45:29;98211.97;;;6.84;37.57
4199;BME280;2113;50.946;14.610;2023-02-28T15:48:02;98212.91;;;6.53;38.51
4199;BME280;2113;50.946;14.610;2023-02-28T15:50:40;98212.88;;;6.60;38.13
4199;BME280;2113;50.946;14.610;2023-02-28T15:53:16;98211.94;;;6.88;38.73
4199;BME280;2113;50.946;14.610;2023-02-28T15:55:53;98213.69;;;6.81;38.06
4199;BME280;2113;50.946;14.610;2023-02-28T15:58:24;98208.44;;;7.07;37.51
4199;BME280;2113;50.946;14.610;2023-02-28T16:01:08;98211.97;;;6.84;37.62
4199;BME280;2113;50.946;14.610;2023-02-28T16:03:47;98210.16;;;7.02;37.96
4199;BME280;2113;50.946;14.610;2023-02-28T16:09:12;98210.94;;;7.22;36.84
4199;BME280;2113;50.946;14.610;2023-02-28T16:11:43;98197.66;;;7.76;36.44
4199;BME280;2113;50.946;14.610;2023-02-28T16:14:17;98198.56;;;7.68;35.81
4199;BME280;2113;50.946;14.610;2023-02-28T16:16:48;98205.72;;;7.30;37.19
4199;BME280;2113;50.946;14.610;2023-02-28T16:19:17;98191.84;;;7.40;37.18
4199;BME280;2113;50.946;14.610;2023-02-28T16:21:47;98203.81;;;7.60;37.34
4199;BME280;2113;50.946;14.610;2023-02-28T16:24:17;98201.16;;;7.69;37.04
4199;BME280;2113;50.946;14.610;2023-02-28T16:26:48;98194.28;;;7.67;37.23
4199;BME280;2113;50.946;14.610;2023-02-28T16:29:23;98205.66;;;7.42;36.26
4199;BME280;2113;50.946;14.610;2023-02-28T16:31:53;98196.72;;;7.87;37.17
4199;BME280;2113;50.946;14.610;2023-02-28T16:34:22;98202.84;;;7.72;37.20
4199;BME280;2113;50.946;14.610;2023-02-28T16:36:51;98211.56;;;7.58;36.98
4199;BME280;2113;50.946;14.610;2023-02-28T16:39:21;98212.59;;;7.31;37.96
4199;BME280;2113;50.946;14.610;2023-02-28T16:41:50;98204.91;;;7.20;37.95
4199;BME280;2113;50.946;14.610;2023-02-28T16:44:26;98215.13;;;7.43;38.27
4199;BME280;2113;50.946;14.610;2023-02-28T16:46:55;98208.22;;;7.44;38.68
4199;BME280;2113;50.946;14.610;2023-02-28T16:49:24;98206.50;;;7.46;38.33
4199;BME280;2113;50.946;14.610;2023-02-28T16:51:53;98209.16;;;7.32;38.78
4199;BME280;2113;50.946;14.610;2023-02-28T16:54:23;98215.22;;;7.25;39.05
4199;BME280;2113;50.946;14.610;2023-02-28T16:56:52;98222.25;;;6.98;38.81
4199;BME280;2113;50.946;14.610;2023-02-28T16:59:23;98225.72;;;6.93;39.62
4199;BME280;2113;50.946;14.610;2023-02-28T17:01:52;98226.63;;;6.79;39.12
4199;BME280;2113;50.946;14.610;2023-02-28T17:04:20;98215.31;;;7.05;38.39
4199;BME280;2113;50.946;14.610;2023-02-28T17:06:49;98221.44;;;6.81;39.16
4199;BME280;2113;50.946;14.610;2023-02-28T17:09:20;98236.97;;;6.69;39.95
4199;BME280;2113;50.946;14.610;2023-02-28T17:11:55;98240.44;;;6.64;40.99
4199;BME280;2113;50.946;14.610;2023-02-28T17:14:24;98235.28;;;6.68;41.13
4199;BME280;2113;50.946;14.610;2023-02-28T17:16:52;98226.66;;;6.62;40.41
4199;BME280;2113;50.946;14.610;2023-02-28T17:19:20;98230.16;;;6.26;41.74
4199;BME280;2113;50.946;14.610;2023-02-28T17:21:48;98233.59;;;6.26;41.73
4199;BME280;2113;50.946;14.610;2023-02-28T17:24:17;98231.88;;;6.22;41.13
4199;BME280;2113;50.946;14.610;2023-02-28T17:26:58;98229.31;;;6.15;41.18
4199;BME280;2113;50.946;14.610;2023-02-28T17:29:28;98225.88;;;5.97;42.18
4199;BME280;2113;50.946;14.610;2023-02-28T17:31:56;98231.00;;;5.85;42.79
4199;BME280;2113;50.946;14.610;2023-02-28T17:34:28;98222.44;;;5.98;42.44
4199;BME280;2113;50.946;14.610;2023-02-28T17:36:57;98221.59;;;6.02;42.08
4199;BME280;2113;50.946;14.610;2023-02-28T17:39:25;98230.97;;;5.57;42.15
4199;BME280;2113;50.946;14.610;2023-02-28T17:41:55;98230.97;;;5.63;42.27
4199;BME280;2113;50.946;14.610;2023-02-28T17:44:25;98230.13;;;5.71;41.89
4199;BME280;2113;50.946;14.610;2023-02-28T17:46:54;98227.47;;;5.38;42.62
4199;BME280;2113;50.946;14.610;2023-02-28T17:49:23;98224.06;;;5.50;42.93
4199;BME280;2113;50.946;14.610;2023-02-28T17:51:51;98222.38;;;5.61;43.19
4199;BME280;2113;50.946;14.610;2023-02-28T17:54:19;98226.72;;;5.81;42.95
4199;BME280;2113;50.946;14.610;2023-02-28T17:56:47;98221.50;;;5.55;43.04
4199;BME280;2113;50.946;14.610;2023-02-28T17:59:16;98222.34;;;5.43;43.53
4199;BME280;2113;50.946;14.610;2023-02-28T18:01:45;98218.84;;;5.22;43.88
4199;BME280;2113;50.946;14.610;2023-02-28T18:04:13;98213.66;;;5.07;44.36
4199;BME280;2113;50.946;14.610;2023-02-28T18:06:43;98217.13;;;5.24;44.14
4199;BME280;2113;50.946;14.610;2023-02-28T18:09:15;98209.41;;;5.26;44.34
4199;BME280;2113;50.946;14.610;2023-02-28T18:11:44;98209.38;;;5.10;44.38
4199;BME280;2113;50.946;14.610;2023-02-28T18:14:18;98210.25;;;5.14;44.00
4199;BME280;2113;50.946;14.610;2023-02-28T18:16:50;98210.28;;;5.29;44.06
4199;BME280;2113;50.946;14.610;2023-02-28T18:19:19;98210.25;;;5.26;44.02
4199;BME280;2113;50.946;14.610;2023-02-28T18:21:50;98217.19;;;5.41;43.83
4199;BME280;2113;50.946;14.610;2023-02-28T18:24:21;98215.34;;;5.08;44.47
4199;BME280;2113;50.946;14.610;2023-02-28T18:26:50;98214.53;;;5.15;44.30
4199;BME280;2113;50.946;14.610;2023-02-28T18:29:21;98213.69;;;5.19;43.80
4199;BME280;2113;50.946;14.610;2023-02-28T18:31:51;98213.66;;;5.13;43.74
4199;BME280;2113;50.946;14.610;2023-02-28T18:34:21;98221.28;;;4.82;44.84
4199;BME280;2113;50.946;14.610;2023-02-28T18:36:51;98212.75;;;4.97;44.61
4199;BME280;2113;50.946;14.610;2023-02-28T18:39:20;98216.94;;;4.72;45.09
4199;BME280;2113;50.946;14.610;2023-02-28T18:41:48;98210.03;;;4.65;44.71
4199;BME280;2113;50.946;14.610;2023-02-28T18:44:16;98218.56;;;4.58;44.96
4199;BME280;2113;50.946;14.610;2023-02-28T18:46:47;98227.16;;;4.60;45.64
4199;BME280;2113;50.946;14.610;2023-02-28T18:49:17;98220.47;;;4.91;44.83
4199;BME280;2113;50.946;14.610;2023-02-28T18:51:46;98222.88;;;4.57;45.22
4199;BME280;2113;50.946;14.610;2023-02-28T18:54:15;98216.00;;;4.62;44.64
4199;BME280;2113;50.946;14.610;2023-02-28T18:56:44;98226.47;;;4.92;44.88
4199;BME280;2113;50.946;14.610;2023-02-28T18:59:12;98233.34;;;4.88;44.45
4199;BME280;2113;50.946;14.610;2023-02-28T19:01:40;98228.09;;;4.71;44.84
4199;BME280;2113;50.946;14.610;2023-02-28T19:04:11;98228.78;;;4.42;45.17
4199;BME280;2113;50.946;14.610;2023-02-28T19:06:41;98224.69;;;4.72;45.03
4199;BME280;2113;50.946;14.610;2023-02-28T19:09:10;98229.03;;;4.88;44.56
4199;BME280;2113;50.946;14.610;2023-02-28T19:11:38;98235.75;;;4.57;45.31
4199;BME280;2113;50.946;14.610;2023-02-28T19:14:06;98235.88;;;4.80;45.04
4199;BME280;2113;50.946;14.610;2023-02-28T19:16:35;98232.41;;;4.72;44.84
4199;BME280;2113;50.946;14.610;2023-02-28T19:19:04;98228.09;;;4.71;44.85
4199;BME280;2113;50.946;14.610;2023-02-28T19:21:32;98224.66;;;4.70;44.43
4199;BME280;2113;50.946;14.610;2023-02-28T19:24:04;98225.50;;;4.68;44.57
4199;BME280;2113;50.946;14.610;2023-02-28T19:26:33;98231.56;;;4.75;44.75
4199;BME280;2113;50.946;14.610;2023-02-28T19:29:02;98236.69;;;4.68;44.95
4199;BME280;2113;50.946;14.610;2023-02-28T19:31:30;98241.53;;;4.25;46.11
4199;BME280;2113;50.946;14.610;2023-02-28T19:33:59;98244.16;;;4.33;45.69
4199;BME280;2113;50.946;14.610;2023-02-28T19:36:28;98232.81;;;4.03;46.17
4199;BME280;2113;50.946;14.610;2023-02-28T19:38:56;98234.34;;;3.83;45.61
4199;BME280;2113;50.946;14.610;2023-02-28T19:41:26;98240.16;;;3.62;46.09
4199;BME280;2113;50.946;14.610;2023-02-28T19:43:54;98236.94;;;3.83;45.66
4199;BME280;2113;50.946;14.610;2023-02-28T19:46:23;98235.31;;;3.96;46.15
4199;BME280;2113;50.946;14.610;2023-02-28T19:48:52;98232.72;;;3.94;45.48
4199;BME280;2113;50.946;14.610;2023-02-28T19:51:20;98236.25;;;4.08;45.47
4199;BME280;2113;50.946;14.610;2023-02-28T19:53:49;98230.34;;;4.20;45.59
4199;BME280;2113;50.946;14.610;2023-02-28T19:56:17;98239.03;;;4.30;45.17
4199;BME280;2113;50.946;14.610;2023-02-28T19:58:47;98237.13;;;4.10;45.82
4199;BME280;2113;50.946;14.610;2023-02-28T20:01:17;98236.31;;;4.13;45.56
4199;BME280;2113;50.946;14.610;2023-02-28T20:03:47;98242.28;;;4.07;45.64
4199;BME280;2113;50.946;14.610;2023-02-28T20:06:15;98247.44;;;4.07;46.08
4199;BME280;2113;50.946;14.610;2023-02-28T20:08:44;98249.16;;;4.11;45.99
4199;BME280;2113;50.946;14.610;2023-02-28T20:11:14;98242.28;;;4.09;45.51
4199;BME280;2113;50.946;14.610;2023-02-28T20:13:43;98237.06;;;3.98;45.56
4199;BME280;2113;50.946;14.610;2023-02-28T20:16:15;98245.59;;;3.94;45.52
4199;BME280;2113;50.946;14.610;2023-02-28T20:18:43;98234.16;;;3.63;46.23
4199;BME280;2113;50.946;14.610;2023-02-28T20:21:12;98232.28;;;3.45;46.97
4199;BME280;2113;50.946;14.610;2023-02-28T20:23:43;98235.44;;;3.21;46.49
4199;BME280;2113;50.946;14.610;2023-02-28T20:26:11;98227.91;;;3.38;46.41
4199;BME280;2113;50.946;14.610;2023-02-28T20:28:40;98232.75;;;3.10;46.95
4199;BME280;2113;50.946;14.610;2023-02-28T20:31:10;98231.13;;;3.18;46.04
4199;BME280;2113;50.946;14.610;2023-02-28T20:33:41;98235.41;;;3.18;46.68
4199;BME280;2113;50.946;14.610;2023-02-28T20:36:13;98234.47;;;3.11;46.33
4199;BME280;2113;50.946;14.610;2023-02-28T20:38:42;98232.59;;;2.94;47.05
4199;BME280;2113;50.946;14.610;2023-02-28T20:41:11;98236.47;;;3.37;46.94
4199;BME280;2113;50.946;14.610;2023-02-28T20:43:40;98224.56;;;3.45;46.31
4199;BME280;2113;50.946;14.610;2023-02-28T20:46:08;98227.84;;;3.31;46.42
4199;BME280;2113;50.946;14.610;2023-02-28T20:48:37;98238.31;;;3.48;46.05
4199;BME280;2113;50.946;14.610;2023-02-28T20:51:07;98240.09;;;3.54;45.88
4199;BME280;2113;50.946;14.610;2023-02-28T20:53:36;98240.19;;;3.66;45.81
4199;BME280;2113;50.946;14.610;2023-02-28T20:56:06;98238.56;;;3.73;45.05
4199;BME280;2113;50.946;14.610;2023-02-28T20:58:36;98245.16;;;3.48;45.34
4199;BME280;2113;50.946;14.610;2023-02-28T21:01:07;98245.03;;;3.36;46.19
4199;BME280;2113;50.946;14.610;2023-02-28T21:03:38;98250.03;;;3.23;46.16
4199;BME280;2113;50.946;14.610;2023-02-28T21:06:09;98246.59;;;3.23;46.57
4199;BME280;2113;50.946;14.610;2023-02-28T21:08:38;98253.53;;;3.27;45.91
4199;BME280;2113;50.946;14.610;2023-02-28T21:11:07;98246.56;;;3.18;46.70
4199;BME280;2113;50.946;14.610;2023-02-28T21:13:36;98242.13;;;3.06;46.31
4199;BME280;2113;50.946;14.610;2023-02-28T21:16:06;98242.84;;;2.94;47.15
4199;BME280;2113;50.946;14.610;2023-02-28T21:18:35;98241.47;;;3.21;46.60
4199;BME280;2113;50.946;14.610;2023-02-28T21:21:05;98244.56;;;2.96;46.89
4199;BME280;2113;50.946;14.610;2023-02-28T21:23:35;98244.94;;;3.28;46.40
4199;BME280;2113;50.946;14.610;2023-02-28T21:26:05;98233.00;;;3.33;46.42
4199;BME280;2113;50.946;14.610;2023-02-28T21:28:35;98240.69;;;3.30;46.53
4199;BME280;2113;50.946;14.610;2023-02-28T21:31:05;98247.50;;;3.26;46.85
4199;BME280;2113;50.946;14.610;2023-02-28T21:33:34;98248.56;;;3.47;45.64
4199;BME280;2113;50.946;14.610;2023-02-28T21:36:04;98250.94;;;3.27;45.92
4199;BME280;2113;50.946;14.610;2023-02-28T21:38:33;98244.13;;;3.29;46.24